• Join FlightAware (Why Join?)
  • Login
  • US Flag 
03:17AM EST


 

Airport Tracker/Info


-or-


 

Live Flight TrackerFlight Track Log ✈ CTL22 ✈ 15-May-2013 ✈ KBKL - KGRR

Flight Track Log - Related Links

Times and Time Zones

All times are in EDT time to prevent confusion due to time zone crossing. See the CTL22 flight status page for this flight to view local times or setup timezone preferences in your user account.

Time Position Orientation Groundspeed Altitude Reporting Facility
EDT Latitude Longitude Course Direction KTS MPH feet Rate Location/Type
09:25PM 41.9103 -82.5194 297° West 156 180 6,000  Level Cleveland Center
09:25PM 41.9244 -82.5422 310° West 153 176 6,000  Level Cleveland Center
09:26PM 41.9344 -82.5650 301° West 156 180 6,000  Level Cleveland Center
09:26PM 41.9464 -82.5933 300° West 154 177 6,000  Level Cleveland Center
09:27PM 41.9567 -82.6131 305° West 156 180 6,000  Level Cleveland Center
09:27PM 41.9728 -82.6386 310° West 153 176 6,000  Level Cleveland Center
09:28PM 41.9806 -82.6642 292° West 156 180 6,000  Level Cleveland Center
09:28PM 41.9906 -82.6869 301° West 155 178 6,000  Level Cleveland Center
09:29PM 41.9986 -82.7122 293° West 156 180 6,000  Level Cleveland Center
09:29PM 42.0064 -82.7347 295° West 153 176 6,000  Level Cleveland Center
09:30PM 41.9473 -82.8382 297° West  Level Estimated
09:30PM 42.0264 -82.7858 298° West 152 175 6,000  Level Cleveland Center
09:31PM 42.0442 -82.8339 296° West 149 171 6,100  Climbing Cleveland Center
09:32PM 42.0681 -82.8881 301° West 150 173 6,000 -60 Descending Cleveland Center
09:34PM 42.0897 -82.9475 296° West 152 175 6,000  Level Cleveland Center
09:35PM 42.1156 -83.0072 300° West 148 170 6,000  Level Cleveland Center
09:36PM 42.1356 -83.0528 301° West 148 170 6,100  Climbing Cleveland Center
09:37PM 42.1514 -83.0983 295° West 148 170 6,000 -60 Descending Cleveland Center
09:38PM 42.1753 -83.1497 302° West 146 168 6,000  Level Cleveland Center
09:39PM 42.1928 -83.1981 296° West 146 168 6,000  Level Cleveland Center
09:40PM 42.2103 -83.2492 295° West 145 167 6,000  Level Cleveland Center
09:41PM 42.2300 -83.3006 297° West 144 166 6,100  Climbing Cleveland Center
09:42PM 42.2453 -83.3572 290° West 145 167 6,100 -60 Level Cleveland Center
09:43PM 42.2650 -83.4086 297° West 146 168 6,000 -60 Descending Cleveland Center
09:44PM 42.2806 -83.4542 295° West 148 170 6,000  Level Cleveland Center
09:45PM 42.2922 -83.4883 295° West 145 167 6,000  Level Cleveland Center
09:46PM 42.3153 -83.5653 292° West 146 168 6,000  Level Cleveland Center
09:47PM 42.3306 -83.6167 292° West 152 175 6,000  Level Cleveland Center
09:48PM 42.3481 -83.6653 296° West 147 169 6,000  Level Cleveland Center
09:49PM 42.3614 -83.7053 294° West 150 173 6,000  Level Cleveland Center
09:50PM 42.3806 -83.7708 292° West 151 174 6,000  Level Cleveland Center
09:52PM 42.4089 -83.8428 298° West 150 173 6,000  Level Chicago Center
09:53PM 42.4258 -83.8925 295° West 148 170 6,000 -60 Level Chicago Center
09:54PM 42.4464 -83.9531 295° West 148 170 5,900  Descending Chicago Center
09:55PM 42.4608 -84.0006 292° West 145 167 6,000  Climbing Chicago Center
09:56PM 42.4736 -84.0539 288° West 144 166 6,000  Level Chicago Center
09:57PM 42.4894 -84.1058 292° West 148 170 6,000  Level Chicago Center
09:58PM 42.5047 -84.1586 291° West 150 173 6,000  Level Chicago Center
09:59PM 42.5203 -84.2075 293° West 145 167 6,000  Level Chicago Center
10:00PM 42.5378 -84.2592 295° West 149 171 6,000  Level Chicago Center
10:01PM 42.5569 -84.3133 296° West 158 182 6,000  Level Chicago Center
10:02PM 42.5722 -84.3650 292° West 152 175 6,000  Level Chicago Center
10:03PM 42.5886 -84.4167 293° West 150 173 6,000  Level Chicago Center
10:04PM 42.6058 -84.4803 290° West 150 173 6,000  Level Chicago Center
10:05PM 42.6206 -84.5331 291° West 150 173 6,000  Level Chicago Center
10:06PM 42.6344 -84.5833 291° West 145 167 6,000  Level Chicago Center
10:07PM 42.6483 -84.6367 290° West 148 170 6,000 -60 Level Chicago Center
10:08PM 42.6633 -84.6894 291° West 151 174 5,900  Descending Chicago Center
10:09PM 42.6786 -84.7386 293° West 145 167 6,000  Climbing Chicago Center
10:10PM 42.6944 -84.7911 292° West 148 170 6,000  Level Chicago Center
10:11PM 42.7086 -84.8428 290° West 148 170 6,000  Level Chicago Center
10:12PM 42.7208 -84.8956 288° West 146 168 6,000  Level Chicago Center
10:13PM 42.7347 -84.9486 290° West 149 171 6,000  Level Chicago Center
10:14PM 42.7517 -85.0094 291° West 146 168 6,000 -600 Level Chicago Center
10:15PM 42.7672 -85.0672 290° West 157 181 4,900 -1,140 Descending Chicago Center
10:16PM 42.7839 -85.1319 289° West 175 201 3,700 -1,200 Descending Chicago Center
10:17PM 42.7972 -85.1953 286° West 176 203 2,500 -720 Descending Chicago Center
10:18PM 42.8111 -85.2564 287° West 174 200 2,300 -120 Descending Chicago Center
10:19PM 42.8244 -85.3056 290° West 148 170 2,300  Level Chicago Center
10:20PM 42.8381 -85.3578 290° West 146 168 2,300 -180 Level Chicago Center
10:21PM 42.8531 -85.4083 292° West 145 167 2,000 -480 Descending Chicago Center
10:22PM 42.8700 -85.4642 293° West 151 174 1,400 -540 Descending Chicago Center
10:23PM 42.8803 -85.5031 290° West 130 150 900 -540 Descending Chicago Center
10:25PM 42.8667 -85.5167 270° West  Level FlightAware Approximate
10:32PM 42.8808 -85.5228 270° West  Level Estimated